Time;durP1;ratioP1;P1;durP2;ratioP2;P2;SDS_P1;SDS_P2;PMS_P1;PMS_P2;Temp;Humidity;BMP_temperature;BMP_pressure;BME280_temperature;BME280_humidity;BME280_pressure;Samples;Min_cycle;Max_cycle;Signal;HPM_P1;HPM_P2
2022/05/25 00:02:01;;;;;;;0.70;0.70;;;;;;;;;;5043349;28;20157;-76
2022/05/25 00:04:27;;;;;;;1.20;0.95;;;;;;;;;;5039803;28;20025;-76
2022/05/25 00:06:53;;;;;;;0.68;0.68;;;;;;;;;;5050274;28;20033;-77
2022/05/25 00:09:20;;;;;;;0.50;0.50;;;;;;;;;;5049047;28;20029;-77
2022/05/25 00:11:46;;;;;;;0.50;0.50;;;;;;;;;;5047994;28;20028;-77
2022/05/25 00:14:12;;;;;;;1.42;0.57;;;;;;;;;;5037978;28;20041;-77
2022/05/25 00:16:38;;;;;;;1.95;1.13;;;;;;;;;;5041984;28;20021;-77
2022/05/25 00:21:49;;;;;;;1.67;1.02;;;;;;;;;;5048245;28;20086;-76
2022/05/25 00:24:15;;;;;;;1.20;0.77;;;;;;;;;;5045897;28;20032;-78
2022/05/25 00:26:41;;;;;;;0.68;0.65;;;;;;;;;;5049577;28;20029;-77
2022/05/25 00:29:07;;;;;;;0.73;0.65;;;;;;;;;;5044618;28;20039;-77
2022/05/25 00:31:33;;;;;;;0.60;0.60;;;;;;;;;;5045315;28;20037;-77
2022/05/25 00:33:59;;;;;;;0.77;0.55;;;;;;;;;;5041545;28;20024;-76
2022/05/25 00:36:26;;;;;;;0.45;0.45;;;;;;;;;;5043093;28;20361;-77
2022/05/25 00:38:52;;;;;;;0.80;0.50;;;;;;;;;;5031142;28;20083;-77
2022/05/25 00:41:18;;;;;;;1.90;1.05;;;;;;;;;;5046046;28;20017;-77
2022/05/25 00:43:43;;;;;;;1.48;0.98;;;;;;;;;;5047185;28;20523;-77
2022/05/25 00:46:13;;;;;;;0.68;0.50;;;;;;;;;;5047191;28;20035;-77
2022/05/25 00:48:42;;;;;;;0.40;0.40;;;;;;;;;;5050339;28;20032;-77
2022/05/25 00:51:13;;;;;;;0.65;0.57;;;;;;;;;;5049804;28;20075;-77
2022/05/25 00:53:44;;;;;;;1.00;0.75;;;;;;;;;;5043369;28;20056;-77
2022/05/25 00:56:13;;;;;;;0.50;0.47;;;;;;;;;;5038685;28;20488;-77
2022/05/25 00:58:39;;;;;;;2.05;0.82;;;;;;;;;;5044996;28;20033;-76
2022/05/25 01:01:05;;;;;;;0.38;0.38;;;;;;;;;;5040809;28;20488;-77
2022/05/25 01:03:32;;;;;;;1.77;0.90;;;;;;;;;;5045504;28;20044;-77
2022/05/25 01:06:01;;;;;;;0.55;0.55;;;;;;;;;;5046942;28;20019;-77
2022/05/25 01:08:42;;;;;;;0.60;0.40;;;;;;;;;;5038948;28;20037;-77
2022/05/25 01:11:14;;;;;;;0.52;0.52;;;;;;;;;;5049299;28;20843;-77
2022/05/25 01:13:43;;;;;;;1.48;0.75;;;;;;;;;;5047151;28;20044;-77
2022/05/25 01:16:18;;;;;;;0.60;0.60;;;;;;;;;;5047098;28;20553;-77
2022/05/25 01:19:02;;;;;;;2.13;0.93;;;;;;;;;;5036001;28;20492;-77
2022/05/25 01:21:33;;;;;;;1.80;0.40;;;;;;;;;;5034526;28;20791;-77
2022/05/25 01:24:11;;;;;;;0.50;0.50;;;;;;;;;;5042926;28;20033;-77
2022/05/25 01:26:48;;;;;;;0.52;0.50;;;;;;;;;;5042674;28;20540;-76
2022/05/25 01:29:23;;;;;;;0.50;0.50;;;;;;;;;;5030886;28;20040;-77
2022/05/25 01:32:07;;;;;;;0.85;0.65;;;;;;;;;;5044917;28;20036;-78
2022/05/25 01:34:41;;;;;;;1.00;0.95;;;;;;;;;;5042332;28;20031;-78
2022/05/25 01:37:30;;;;;;;0.73;0.73;;;;;;;;;;5048312;28;20048;-78
2022/05/25 01:40:01;;;;;;;0.52;0.52;;;;;;;;;;5041680;28;20028;-78
2022/05/25 01:42:32;;;;;;;1.65;1.20;;;;;;;;;;5037968;28;20124;-77
2022/05/25 01:45:06;;;;;;;1.25;0.85;;;;;;;;;;5046491;28;20139;-76
2022/05/25 01:47:33;;;;;;;0.30;0.30;;;;;;;;;;5046488;28;20306;-76
2022/05/25 01:50:08;;;;;;;1.33;1.00;;;;;;;;;;5045547;28;20123;-77
2022/05/25 01:52:40;;;;;;;0.70;0.52;;;;;;;;;;5048496;28;20033;-76
2022/05/25 01:55:08;;;;;;;0.68;0.68;;;;;;;;;;5047520;28;20028;-76
2022/05/25 01:57:36;;;;;;;0.90;0.90;;;;;;;;;;5039785;28;20037;-77
2022/05/25 02:00:06;;;;;;;0.50;0.43;;;;;;;;;;5036251;28;20033;-77
2022/05/25 02:05:18;;;;;;;0.90;0.85;;;;;;;;;;5040596;28;20447;-76
2022/05/25 02:07:44;;;;;;;1.25;0.70;;;;;;;;;;5048164;28;20037;-76
2022/05/25 02:10:21;;;;;;;0.73;0.73;;;;;;;;;;5042269;28;20087;-77
2022/05/25 02:12:53;;;;;;;0.70;0.70;;;;;;;;;;5039856;28;20120;-77
2022/05/25 02:15:29;;;;;;;0.63;0.60;;;;;;;;;;5044697;28;20072;-78
2022/05/25 02:18:13;;;;;;;0.60;0.60;;;;;;;;;;5034574;28;20036;-77
2022/05/25 02:20:47;;;;;;;0.82;0.60;;;;;;;;;;5048599;28;20029;-77
2022/05/25 02:23:17;;;;;;;0.88;0.80;;;;;;;;;;5040413;28;20048;-77
2022/05/25 02:25:54;;;;;;;1.98;0.90;;;;;;;;;;5044535;28;20087;-77
2022/05/25 02:28:25;;;;;;;0.60;0.60;;;;;;;;;;5044388;28;20075;-77
2022/05/25 02:30:53;;;;;;;0.77;0.77;;;;;;;;;;5040117;28;20587;-77
2022/05/25 02:33:22;;;;;;;0.60;0.60;;;;;;;;;;5037644;28;20054;-77
2022/05/25 02:35:48;;;;;;;0.63;0.60;;;;;;;;;;5049524;28;20025;-77
2022/05/25 02:38:14;;;;;;;1.42;1.27;;;;;;;;;;5048181;28;20469;-77
2022/05/25 02:40:41;;;;;;;0.98;0.63;;;;;;;;;;5048396;28;20037;-77
2022/05/25 02:43:08;;;;;;;1.13;0.98;;;;;;;;;;5033424;28;20036;-77
2022/05/25 02:45:34;;;;;;;0.95;0.82;;;;;;;;;;5033445;28;20123;-78
2022/05/25 02:48:00;;;;;;;1.52;0.40;;;;;;;;;;5049683;28;20025;-77
2022/05/25 02:50:26;;;;;;;1.85;1.65;;;;;;;;;;5044246;28;20044;-77
2022/05/25 02:52:52;;;;;;;1.52;0.75;;;;;;;;;;5048381;28;20029;-77
2022/05/25 02:55:18;;;;;;;2.30;0.93;;;;;;;;;;5043552;28;20063;-77
2022/05/25 02:57:44;;;;;;;0.63;0.52;;;;;;;;;;5030255;28;20017;-77
2022/05/25 03:00:11;;;;;;;1.20;0.77;;;;;;;;;;5033649;28;20036;-77
2022/05/25 03:02:37;;;;;;;2.25;1.55;;;;;;;;;;5046735;28;20076;-77
2022/05/25 03:05:03;;;;;;;0.60;0.60;;;;;;;;;;5043102;28;20039;-76
2022/05/25 03:07:29;;;;;;;0.60;0.60;;;;;;;;;;5045695;28;20512;-77
2022/05/25 03:09:55;;;;;;;1.17;0.88;;;;;;;;;;5033787;28;20058;-76
2022/05/25 03:12:21;;;;;;;1.15;1.02;;;;;;;;;;5030262;28;20106;-76
2022/05/25 03:14:47;;;;;;;0.68;0.68;;;;;;;;;;5046601;28;20032;-77
2022/05/25 03:17:14;;;;;;;0.32;0.32;;;;;;;;;;5042610;28;20018;-77
2022/05/25 03:19:48;;;;;;;1.35;0.95;;;;;;;;;;5048795;28;20403;-76
2022/05/25 03:22:14;;;;;;;1.27;1.17;;;;;;;;;;5030027;28;20078;-77
2022/05/25 03:24:40;;;;;;;0.50;0.50;;;;;;;;;;5034860;28;20032;-77
2022/05/25 03:27:06;;;;;;;0.80;0.80;;;;;;;;;;5045615;28;20033;-77
2022/05/25 03:29:32;;;;;;;1.05;0.90;;;;;;;;;;5049003;28;20055;-77
2022/05/25 03:31:58;;;;;;;0.50;0.40;;;;;;;;;;5031703;28;20025;-77
2022/05/25 03:34:24;;;;;;;1.40;0.90;;;;;;;;;;5040538;28;20056;-77
2022/05/25 03:36:54;;;;;;;0.55;0.50;;;;;;;;;;5046218;28;20072;-77
2022/05/25 03:39:20;;;;;;;1.38;0.60;;;;;;;;;;5036551;28;20140;-76
2022/05/25 03:41:47;;;;;;;0.82;0.57;;;;;;;;;;5036357;28;20573;-77
2022/05/25 03:44:14;;;;;;;1.52;0.85;;;;;;;;;;5036729;28;20043;-77
2022/05/25 03:46:40;;;;;;;1.50;0.90;;;;;;;;;;5043614;28;20478;-77
2022/05/25 03:49:06;;;;;;;0.90;0.90;;;;;;;;;;5046928;28;20039;-77
2022/05/25 03:51:32;;;;;;;0.73;0.73;;;;;;;;;;5043291;28;20025;-77
2022/05/25 03:53:58;;;;;;;0.85;0.70;;;;;;;;;;5050664;28;20021;-77
2022/05/25 03:56:25;;;;;;;2.30;0.77;;;;;;;;;;5045023;28;20024;-77
2022/05/25 03:58:51;;;;;;;3.15;0.57;;;;;;;;;;5044408;28;20024;-78
2022/05/25 04:01:17;;;;;;;0.50;0.45;;;;;;;;;;5046767;28;20033;-77
2022/05/25 04:03:43;;;;;;;0.70;0.65;;;;;;;;;;5037395;28;20261;-80
2022/05/25 04:06:09;;;;;;;0.50;0.50;;;;;;;;;;5045579;28;20521;-79
2022/05/25 04:08:34;;;;;;;0.95;0.75;;;;;;;;;;5049425;28;20033;-77
2022/05/25 04:11:00;;;;;;;1.05;0.98;;;;;;;;;;5041079;28;20033;-79
2022/05/25 04:13:27;;;;;;;0.60;0.60;;;;;;;;;;5041054;28;20179;-78
2022/05/25 04:15:53;;;;;;;1.45;1.33;;;;;;;;;;5043589;28;20036;-78
2022/05/25 04:18:19;;;;;;;2.50;0.73;;;;;;;;;;5038944;28;20025;-77
2022/05/25 04:20:45;;;;;;;1.25;1.02;;;;;;;;;;5039143;28;20051;-77
2022/05/25 04:23:14;;;;;;;0.60;0.60;;;;;;;;;;5047735;28;20047;-79
2022/05/25 04:25:40;;;;;;;1.67;0.90;;;;;;;;;;5044551;28;20381;-78
2022/05/25 04:28:07;;;;;;;0.80;0.80;;;;;;;;;;5045941;28;20021;-80
2022/05/25 04:30:33;;;;;;;1.38;0.98;;;;;;;;;;5046259;28;20082;-79
2022/05/25 04:32:58;;;;;;;0.98;0.88;;;;;;;;;;5042252;28;20057;-81
2022/05/25 04:35:26;;;;;;;1.40;1.08;;;;;;;;;;5042554;28;20021;-83
2022/05/25 04:37:52;;;;;;;1.35;0.77;;;;;;;;;;5040071;28;20102;-77
2022/05/25 04:40:38;;;;;;;1.08;0.98;;;;;;;;;;5045253;28;20520;-77
2022/05/25 04:43:06;;;;;;;1.33;0.93;;;;;;;;;;5035361;28;20043;-76
2022/05/25 04:45:32;;;;;;;1.65;1.55;;;;;;;;;;5035606;28;20083;-77
2022/05/25 04:47:59;;;;;;;8.75;1.30;;;;;;;;;;5034483;28;20045;-77
2022/05/25 04:50:26;;;;;;;1.60;1.27;;;;;;;;;;5045804;28;20445;-77
2022/05/25 04:52:54;;;;;;;2.35;1.15;;;;;;;;;;5049123;28;20028;-79
2022/05/25 04:58:04;;;;;;;1.02;0.98;;;;;;;;;;5050879;28;20055;-78
2022/05/25 05:00:31;;;;;;;0.98;0.90;;;;;;;;;;5036529;28;20514;-78
2022/05/25 05:02:57;;;;;;;3.72;1.63;;;;;;;;;;5033184;28;20055;-78
2022/05/25 05:05:23;;;;;;;1.17;1.00;;;;;;;;;;5038819;28;20033;-78
2022/05/25 05:07:49;;;;;;;0.95;0.85;;;;;;;;;;5044772;28;20104;-84
2022/05/25 05:10:15;;;;;;;1.42;1.13;;;;;;;;;;5054812;28;20372;-84
2022/05/25 05:12:41;;;;;;;1.42;1.33;;;;;;;;;;5050361;28;20025;-79
2022/05/25 05:15:08;;;;;;;1.13;1.02;;;;;;;;;;5044700;28;20665;-76
2022/05/25 05:17:33;;;;;;;1.00;0.90;;;;;;;;;;5034257;28;20057;-77
2022/05/25 05:19:59;;;;;;;0.68;0.68;;;;;;;;;;5042384;28;20052;-78
2022/05/25 05:22:25;;;;;;;1.45;1.13;;;;;;;;;;5046478;28;20135;-79
2022/05/25 05:24:51;;;;;;;1.60;1.10;;;;;;;;;;5049461;28;20021;-79
2022/05/25 05:27:17;;;;;;;1.10;1.00;;;;;;;;;;5047620;28;20400;-79
2022/05/25 05:29:43;;;;;;;1.67;1.05;;;;;;;;;;5050378;28;20029;-80
2022/05/25 05:32:10;;;;;;;0.63;0.63;;;;;;;;;;5048991;28;20076;-80
2022/05/25 05:34:36;;;;;;;0.85;0.77;;;;;;;;;;5047574;28;20101;-80
2022/05/25 05:37:05;;;;;;;1.67;1.40;;;;;;;;;;5049530;28;20459;-79
2022/05/25 05:39:34;;;;;;;1.88;1.27;;;;;;;;;;5050013;28;20028;-80
2022/05/25 05:42:03;;;;;;;1.30;1.17;;;;;;;;;;5047890;28;20024;-81
2022/05/25 05:44:32;;;;;;;1.90;0.95;;;;;;;;;;5049836;28;20028;-79
2022/05/25 05:47:00;;;;;;;1.55;1.05;;;;;;;;;;5049986;28;20384;-80
2022/05/25 05:49:26;;;;;;;3.80;1.83;;;;;;;;;;5048230;28;20028;-80
2022/05/25 05:51:52;;;;;;;3.30;2.33;;;;;;;;;;5042335;28;20039;-80
2022/05/25 05:54:19;;;;;;;1.70;1.25;;;;;;;;;;5049753;28;20024;-80
2022/05/25 05:56:45;;;;;;;1.02;0.82;;;;;;;;;;5049789;28;20029;-80
2022/05/25 05:59:11;;;;;;;1.48;0.98;;;;;;;;;;5049292;28;20403;-80
2022/05/25 06:01:37;;;;;;;1.13;1.00;;;;;;;;;;5048884;28;20040;-79
2022/05/25 06:04:03;;;;;;;1.40;1.30;;;;;;;;;;5048888;28;20033;-79
2022/05/25 06:06:29;;;;;;;0.90;0.88;;;;;;;;;;5044733;28;20032;-81
2022/05/25 06:08:56;;;;;;;2.15;1.15;;;;;;;;;;5049730;28;20025;-79
2022/05/25 06:11:23;;;;;;;3.42;1.10;;;;;;;;;;5057659;28;20029;-80
2022/05/25 06:13:49;;;;;;;0.75;0.75;;;;;;;;;;5036760;28;20020;-80
2022/05/25 06:21:44;;;;;;;1.77;1.15;;;;;;;;;;5029616;28;20407;-80
2022/05/25 06:24:10;;;;;;;1.73;1.15;;;;;;;;;;5025356;28;20112;-80
2022/05/25 06:26:36;;;;;;;2.58;1.33;;;;;;;;;;5042188;28;20533;-79
2022/05/25 06:29:02;;;;;;;0.88;0.80;;;;;;;;;;5035521;28;20041;-79
2022/05/25 06:31:28;;;;;;;1.27;1.10;;;;;;;;;;5049215;28;20029;-79
2022/05/25 06:33:55;;;;;;;0.75;0.73;;;;;;;;;;5038749;28;20099;-78
2022/05/25 06:36:25;;;;;;;0.80;0.80;;;;;;;;;;5039270;28;20048;-79
2022/05/25 06:38:51;;;;;;;0.80;0.80;;;;;;;;;;5041708;28;20036;-79
2022/05/25 06:41:17;;;;;;;1.55;1.25;;;;;;;;;;5028770;28;20035;-79
2022/05/25 06:43:44;;;;;;;0.90;0.90;;;;;;;;;;5029363;28;20466;-79
2022/05/25 06:46:11;;;;;;;1.75;1.38;;;;;;;;;;5029211;28;20026;-79
2022/05/25 06:48:37;;;;;;;0.80;0.57;;;;;;;;;;5032836;28;20120;-80
2022/05/25 06:51:10;;;;;;;1.85;1.23;;;;;;;;;;5048974;28;20060;-79
2022/05/25 06:53:36;;;;;;;1.52;0.90;;;;;;;;;;5047302;28;20032;-79
2022/05/25 06:56:02;;;;;;;1.17;0.95;;;;;;;;;;5049107;28;20029;-79
2022/05/25 06:58:27;;;;;;;1.05;0.88;;;;;;;;;;5048618;28;20028;-80
2022/05/25 07:00:53;;;;;;;3.42;1.63;;;;;;;;;;5046946;28;20408;-79
2022/05/25 07:03:21;;;;;;;0.95;0.93;;;;;;;;;;5048552;28;20044;-80
2022/05/25 07:05:47;;;;;;;1.33;1.05;;;;;;;;;;5049063;28;20029;-80
2022/05/25 07:08:13;;;;;;;1.73;1.15;;;;;;;;;;5048799;28;20025;-80
2022/05/25 07:10:45;;;;;;;1.35;0.60;;;;;;;;;;5047706;28;20022;-80
2022/05/25 07:13:11;;;;;;;2.08;1.40;;;;;;;;;;5038128;28;20103;-81
2022/05/25 07:15:37;;;;;;;1.40;1.20;;;;;;;;;;5028509;28;20046;-78
2022/05/25 07:18:03;;;;;;;1.52;0.98;;;;;;;;;;5039635;28;20447;-80
2022/05/25 07:20:29;;;;;;;0.82;0.82;;;;;;;;;;5044265;28;20124;-78
2022/05/25 07:22:55;;;;;;;1.55;0.63;;;;;;;;;;5045468;28;20021;-77
2022/05/25 07:25:21;;;;;;;1.10;0.88;;;;;;;;;;5050496;28;20091;-76
2022/05/25 07:27:47;;;;;;;0.73;0.73;;;;;;;;;;5039555;28;20031;-79
2022/05/25 07:30:13;;;;;;;0.65;0.65;;;;;;;;;;5049160;28;20115;-80
2022/05/25 07:32:39;;;;;;;1.33;1.13;;;;;;;;;;5032888;28;20100;-78
2022/05/25 07:35:06;;;;;;;1.75;0.98;;;;;;;;;;5043504;28;20432;-78
2022/05/25 07:37:35;;;;;;;1.48;0.93;;;;;;;;;;5032253;28;20033;-75
2022/05/25 07:40:02;;;;;;;2.60;1.02;;;;;;;;;;5049712;28;20051;-76
2022/05/25 07:42:29;;;;;;;1.02;0.93;;;;;;;;;;5032503;28;20029;-78
2022/05/25 07:44:56;;;;;;;1.05;0.82;;;;;;;;;;5040578;28;20032;-75
2022/05/25 07:47:22;;;;;;;4.25;1.30;;;;;;;;;;5042516;28;20474;-78
2022/05/25 07:49:48;;;;;;;0.80;0.68;;;;;;;;;;5037413;28;20029;-80
2022/05/25 07:52:14;;;;;;;2.47;1.00;;;;;;;;;;5031670;28;20025;-79
2022/05/25 07:54:41;;;;;;;1.98;1.30;;;;;;;;;;5035954;28;20052;-78
2022/05/25 07:57:07;;;;;;;1.02;0.80;;;;;;;;;;5036184;28;20071;-80
2022/05/25 07:59:34;;;;;;;1.15;0.90;;;;;;;;;;5037717;28;20045;-79
2022/05/25 08:07:31;;;;;;;0.98;0.80;;;;;;;;;;5049004;28;20067;-80
2022/05/25 08:10:01;;;;;;;1.27;1.05;;;;;;;;;;5049095;28;20056;-79
2022/05/25 08:12:28;;;;;;;1.63;0.90;;;;;;;;;;5046920;28;20027;-78
2022/05/25 08:14:54;;;;;;;1.73;1.13;;;;;;;;;;5035015;28;20025;-76
2022/05/25 08:17:20;;;;;;;1.38;1.00;;;;;;;;;;5048686;28;20369;-77
2022/05/25 08:19:46;;;;;;;0.95;0.85;;;;;;;;;;5043005;28;20116;-78
2022/05/25 08:22:12;;;;;;;1.10;0.88;;;;;;;;;;5036840;28;20083;-75
2022/05/25 08:24:38;;;;;;;1.98;1.00;;;;;;;;;;5051017;28;20029;-76
2022/05/25 08:27:05;;;;;;;1.73;1.30;;;;;;;;;;5039875;28;20127;-77
2022/05/25 08:29:31;;;;;;;1.58;1.08;;;;;;;;;;5043733;28;20029;-76
2022/05/25 08:31:57;;;;;;;2.65;1.02;;;;;;;;;;5046915;28;20025;-80
2022/05/25 08:34:23;;;;;;;0.93;0.90;;;;;;;;;;5045571;28;20108;-79
2022/05/25 08:36:50;;;;;;;1.98;1.13;;;;;;;;;;5044694;28;20108;-74
2022/05/25 08:39:15;;;;;;;0.93;0.80;;;;;;;;;;5051403;28;20421;-78
2022/05/25 08:41:42;;;;;;;1.13;0.90;;;;;;;;;;5048551;28;20128;-78
2022/05/25 08:44:10;;;;;;;1.00;0.90;;;;;;;;;;5031444;28;20369;-80
2022/05/25 08:46:35;;;;;;;0.60;0.50;;;;;;;;;;5041437;28;20115;-79
2022/05/25 08:49:03;;;;;;;1.25;1.02;;;;;;;;;;5045057;28;20132;-77
2022/05/25 08:51:30;;;;;;;1.92;1.40;;;;;;;;;;5050326;28;20034;-83
2022/05/25 08:53:57;;;;;;;1.40;1.23;;;;;;;;;;5038210;28;20388;-81
2022/05/25 08:56:29;;;;;;;1.10;0.77;;;;;;;;;;5040743;28;20384;-81
2022/05/25 08:58:55;;;;;;;0.90;0.85;;;;;;;;;;5040724;28;20048;-80
2022/05/25 09:01:38;;;;;;;3.13;1.23;;;;;;;;;;5033873;28;20049;-82
2022/05/25 09:04:17;;;;;;;2.90;1.15;;;;;;;;;;5040745;28;20079;-83
2022/05/25 09:06:47;;;;;;;0.70;0.52;;;;;;;;;;5048945;28;20120;-82
2022/05/25 09:09:17;;;;;;;1.25;1.13;;;;;;;;;;5047266;28;20132;-76
2022/05/25 09:11:49;;;;;;;0.95;0.63;;;;;;;;;;5049442;28;20053;-79
2022/05/25 09:14:20;;;;;;;0.88;0.70;;;;;;;;;;5036919;28;20021;-74
2022/05/25 09:16:48;;;;;;;0.93;0.90;;;;;;;;;;5030909;28;20476;-75
2022/05/25 09:19:17;;;;;;;1.00;0.80;;;;;;;;;;5044292;28;20576;-77
2022/05/25 09:22:00;;;;;;;0.57;0.55;;;;;;;;;;5039742;28;20042;-77
2022/05/25 09:24:28;;;;;;;10.52;1.17;;;;;;;;;;5034171;28;20483;-78
2022/05/25 09:26:54;;;;;;;0.70;0.70;;;;;;;;;;5036974;28;20029;-79
2022/05/25 09:29:20;;;;;;;0.90;0.73;;;;;;;;;;5027038;28;20052;-78
2022/05/25 09:31:58;;;;;;;0.55;0.50;;;;;;;;;;5033371;28;20120;-76
2022/05/25 09:34:37;;;;;;;4.93;1.52;;;;;;;;;;5047972;28;20021;-76
2022/05/25 09:37:10;;;;;;;0.52;0.52;;;;;;;;;;5036909;28;20033;-78
2022/05/25 09:39:41;;;;;;;0.32;0.32;;;;;;;;;;5040140;28;20048;-80
2022/05/25 09:42:11;;;;;;;0.88;0.75;;;;;;;;;;5040060;28;20082;-76
2022/05/25 09:44:37;;;;;;;1.58;0.80;;;;;;;;;;5040253;28;20047;-75
2022/05/25 09:47:06;;;;;;;0.40;0.35;;;;;;;;;;5030249;28;20121;-77
2022/05/25 09:49:36;;;;;;;2.08;0.63;;;;;;;;;;5036765;28;20449;-73
2022/05/25 09:52:04;;;;;;;3.25;1.42;;;;;;;;;;5029069;28;20046;-74
2022/05/25 09:54:33;;;;;;;0.73;0.52;;;;;;;;;;5046380;28;20119;-74
2022/05/25 09:57:06;;;;;;;0.80;0.80;;;;;;;;;;5049216;28;20105;-74
2022/05/25 09:59:35;;;;;;;0.68;0.68;;;;;;;;;;5045516;28;20037;-74
2022/05/25 10:02:01;;;;;;;0.65;0.65;;;;;;;;;;5001991;28;990657;-74
2022/05/25 10:04:34;;;;;;;0.70;0.70;;;;;;;;;;5043715;28;20475;-74
2022/05/25 10:07:00;;;;;;;0.47;0.45;;;;;;;;;;5041823;28;20139;-76
2022/05/25 10:09:27;;;;;;;1.98;0.68;;;;;;;;;;5049606;28;20579;-74
2022/05/25 10:11:58;;;;;;;0.68;0.55;;;;;;;;;;5050614;28;20041;-74
2022/05/25 10:14:24;;;;;;;0.65;0.65;;;;;;;;;;5042234;28;20066;-74
2022/05/25 10:16:50;;;;;;;1.00;0.63;;;;;;;;;;5031678;28;20388;-73
2022/05/25 10:19:17;;;;;;;0.70;0.70;;;;;;;;;;5042404;28;20037;-74
2022/05/25 10:21:47;;;;;;;0.40;0.40;;;;;;;;;;5044139;28;20033;-73
2022/05/25 10:24:15;;;;;;;0.70;0.70;;;;;;;;;;5046735;28;20507;-74
2022/05/25 10:26:49;;;;;;;0.60;0.60;;;;;;;;;;5049007;28;20039;-76
2022/05/25 10:36:45;;;;;;;0.65;0.60;;;;;;;;;;5048735;28;20434;-74
2022/05/25 10:38:27;;;;;;;0.60;0.57;;;;;;;;;;5040448;28;20035;-74
2022/05/25 10:40:54;;;;;;;0.65;0.52;;;;;;;;;;5033730;28;20040;-74
2022/05/25 10:43:24;;;;;;;1.30;0.70;;;;;;;;;;5033922;28;20060;-74
2022/05/25 10:45:53;;;;;;;1.03;0.70;;;;;;;;;;5043014;28;20052;-73
2022/05/25 10:48:37;;;;;;;0.50;0.50;;;;;;;;;;5049018;28;20025;-74
2022/05/25 10:51:25;;;;;;;0.50;0.50;;;;;;;;;;5036764;28;20634;-74
2022/05/25 10:56:56;;;;;;;0.65;0.65;;;;;;;;;;5047327;28;20044;-73
2022/05/25 10:59:41;;;;;;;1.45;0.75;;;;;;;;;;5033442;28;20033;-74
2022/05/25 11:02:16;;;;;;;1.52;0.98;;;;;;;;;;5035925;28;20102;-73
2022/05/25 11:04:42;;;;;;;1.30;0.70;;;;;;;;;;5031221;28;20126;-74
2022/05/25 11:07:15;;;;;;;0.47;0.47;;;;;;;;;;5035486;28;20494;-73
2022/05/25 11:09:56;;;;;;;0.40;0.40;;;;;;;;;;5043577;28;20039;-73
2022/05/25 11:12:41;;;;;;;0.77;0.77;;;;;;;;;;5029229;28;20022;-74
2022/05/25 11:15:28;;;;;;;2.33;0.50;;;;;;;;;;5032118;28;20395;-73
2022/05/25 11:18:04;;;;;;;0.50;0.50;;;;;;;;;;5041925;28;20070;-73
2022/05/25 11:20:29;;;;;;;0.50;0.50;;;;;;;;;;5044326;28;20482;-74
2022/05/25 11:23:14;;;;;;;0.47;0.47;;;;;;;;;;5049030;28;20077;-74
2022/05/25 11:25:43;;;;;;;0.65;0.65;;;;;;;;;;5040357;28;20713;-74
2022/05/25 11:28:25;;;;;;;0.40;0.35;;;;;;;;;;5027957;28;20025;-74
2022/05/25 11:31:14;;;;;;;0.77;0.75;;;;;;;;;;5035953;28;20507;-74
2022/05/25 11:33:58;;;;;;;0.40;0.40;;;;;;;;;;5047113;28;20539;-74
2022/05/25 11:36:49;;;;;;;0.35;0.35;;;;;;;;;;5036251;28;20807;-74
2022/05/25 11:39:33;;;;;;;0.80;0.52;;;;;;;;;;5037212;28;20017;-74
2022/05/25 11:42:14;;;;;;;0.50;0.40;;;;;;;;;;5033036;28;20056;-74
2022/05/25 11:45:04;;;;;;;0.50;0.50;;;;;;;;;;5028447;28;20037;-75
2022/05/25 11:47:40;;;;;;;0.70;0.57;;;;;;;;;;5032341;28;20098;-73
2022/05/25 11:50:13;;;;;;;0.52;0.52;;;;;;;;;;5034320;28;20035;-74
2022/05/25 11:52:53;;;;;;;1.05;0.32;;;;;;;;;;5045128;28;20037;-75
2022/05/25 11:55:22;;;;;;;1.30;0.60;;;;;;;;;;5048059;28;20021;-75
2022/05/25 11:58:00;;;;;;;0.43;0.43;;;;;;;;;;5042538;28;20036;-75
2022/05/25 12:00:29;;;;;;;0.50;0.50;;;;;;;;;;5028997;28;20029;-75
2022/05/25 12:03:12;;;;;;;1.58;0.55;;;;;;;;;;5031654;28;20064;-76
2022/05/25 12:06:00;;;;;;;0.52;0.50;;;;;;;;;;5034550;28;20365;-76
2022/05/25 12:08:38;;;;;;;0.52;0.52;;;;;;;;;;5044195;28;20146;-75
2022/05/25 12:11:09;;;;;;;0.50;0.50;;;;;;;;;;5052101;28;20041;-75
2022/05/25 12:13:42;;;;;;;0.60;0.60;;;;;;;;;;5049787;28;20043;-75
2022/05/25 12:16:20;;;;;;;6.72;0.88;;;;;;;;;;5044550;28;20029;-76
2022/05/25 12:18:52;;;;;;;0.47;0.47;;;;;;;;;;5050572;28;20091;-77
2022/05/25 12:21:20;;;;;;;0.60;0.60;;;;;;;;;;5041729;28;20037;-76
2022/05/25 12:23:49;;;;;;;0.60;0.60;;;;;;;;;;5044078;28;20040;-76
2022/05/25 12:26:22;;;;;;;1.13;0.77;;;;;;;;;;5038180;28;20037;-77
2022/05/25 12:28:48;;;;;;;0.57;0.57;;;;;;;;;;5031899;28;20112;-76
2022/05/25 12:31:17;;;;;;;0.73;0.38;;;;;;;;;;5043522;28;20124;-76
2022/05/25 12:33:43;;;;;;;0.40;0.40;;;;;;;;;;5047849;28;20035;-76
2022/05/25 12:36:10;;;;;;;0.47;0.47;;;;;;;;;;5040619;28;20112;-75
2022/05/25 12:38:37;;;;;;;0.63;0.63;;;;;;;;;;5038227;28;20018;-75
2022/05/25 12:41:22;;;;;;;0.45;0.45;;;;;;;;;;5041275;28;20029;-74
2022/05/25 12:43:48;;;;;;;0.85;0.85;;;;;;;;;;5035811;28;20021;-74
2022/05/25 12:49:03;;;;;;;0.88;0.60;;;;;;;;;;5042713;28;20419;-75
2022/05/25 12:51:29;;;;;;;1.02;0.70;;;;;;;;;;5042582;28;20460;-76
2022/05/25 12:53:55;;;;;;;0.60;0.60;;;;;;;;;;5049558;28;20037;-78
2022/05/25 12:56:24;;;;;;;0.82;0.68;;;;;;;;;;5034866;28;20657;-76
2022/05/25 12:58:52;;;;;;;0.60;0.60;;;;;;;;;;5042854;28;20020;-75
2022/05/25 13:01:27;;;;;;;1.38;0.70;;;;;;;;;;5051026;28;20032;-75
2022/05/25 13:03:58;;;;;;;1.23;0.80;;;;;;;;;;5038976;28;20415;-75
2022/05/25 13:06:30;;;;;;;1.58;0.80;;;;;;;;;;5043886;28;20163;-75
2022/05/25 13:08:56;;;;;;;0.45;0.45;;;;;;;;;;5049506;28;20522;-75
2022/05/25 13:11:39;;;;;;;0.55;0.55;;;;;;;;;;5048436;28;20463;-75
2022/05/25 13:14:07;;;;;;;0.52;0.47;;;;;;;;;;5042009;28;20507;-75
2022/05/25 13:16:42;;;;;;;0.63;0.63;;;;;;;;;;5030529;28;20108;-75
2022/05/25 13:19:27;;;;;;;0.38;0.38;;;;;;;;;;5030518;28;20030;-74
2022/05/25 13:21:57;;;;;;;0.40;0.40;;;;;;;;;;5032551;28;20032;-74
2022/05/25 13:24:26;;;;;;;0.70;0.60;;;;;;;;;;5041251;28;20121;-74
2022/05/25 13:27:11;;;;;;;1.50;0.60;;;;;;;;;;5050478;28;20044;-74
2022/05/25 13:29:43;;;;;;;1.85;0.80;;;;;;;;;;5041664;28;20026;-73
2022/05/25 13:32:12;;;;;;;0.40;0.40;;;;;;;;;;5033813;28;20033;-74
2022/05/25 13:34:38;;;;;;;0.65;0.40;;;;;;;;;;5038670;28;20032;-74
2022/05/25 13:37:06;;;;;;;0.40;0.40;;;;;;;;;;5036811;28;20021;-74
2022/05/25 13:39:32;;;;;;;1.73;0.50;;;;;;;;;;5034295;28;20163;-73
2022/05/25 13:42:04;;;;;;;1.42;0.35;;;;;;;;;;5046942;28;20033;-72
2022/05/25 13:44:38;;;;;;;1.23;0.55;;;;;;;;;;5046368;28;20052;-73
2022/05/25 13:47:03;;;;;;;0.30;0.30;;;;;;;;;;5043985;28;20201;-73
2022/05/25 13:49:31;;;;;;;0.60;0.50;;;;;;;;;;5049522;28;20489;-74
2022/05/25 13:52:17;;;;;;;0.45;0.45;;;;;;;;;;5041560;28;20518;-75
2022/05/25 13:54:45;;;;;;;1.35;1.02;;;;;;;;;;5033415;28;20436;-74
2022/05/25 13:57:13;;;;;;;0.50;0.50;;;;;;;;;;5042413;28;20021;-73
2022/05/25 13:59:40;;;;;;;0.38;0.38;;;;;;;;;;5047040;28;20032;-72
2022/05/25 14:02:26;;;;;;;0.30;0.30;;;;;;;;;;5042196;28;20040;-74
2022/05/25 14:04:54;;;;;;;0.47;0.47;;;;;;;;;;5033800;28;20036;-72
2022/05/25 14:07:34;;;;;;;0.60;0.60;;;;;;;;;;5038239;28;20463;-73
2022/05/25 14:12:50;;;;;;;0.32;0.32;;;;;;;;;;5045828;28;20068;-73
2022/05/25 14:15:18;;;;;;;6.03;0.70;;;;;;;;;;5045080;28;20025;-73
2022/05/25 14:17:53;;;;;;;1.65;0.82;;;;;;;;;;5037364;28;20034;-72
2022/05/25 14:20:21;;;;;;;0.40;0.40;;;;;;;;;;5040522;28;20060;-73
2022/05/25 14:22:47;;;;;;;0.30;0.30;;;;;;;;;;5041377;28;20087;-76
2022/05/25 14:25:15;;;;;;;0.45;0.43;;;;;;;;;;5040286;28;20097;-75
2022/05/25 14:27:41;;;;;;;0.95;0.47;;;;;;;;;;5038338;28;20443;-74
2022/05/25 14:30:25;;;;;;;0.45;0.45;;;;;;;;;;5029273;28;20029;-74
2022/05/25 14:33:02;;;;;;;0.70;0.70;;;;;;;;;;5042991;28;20160;-74
2022/05/25 14:35:30;;;;;;;0.32;0.30;;;;;;;;;;5035737;28;20025;-74
2022/05/25 14:37:59;;;;;;;2.22;0.40;;;;;;;;;;5035817;28;20067;-74
2022/05/25 14:40:27;;;;;;;0.88;0.63;;;;;;;;;;5046063;28;20776;-74
2022/05/25 14:42:55;;;;;;;0.85;0.50;;;;;;;;;;5046533;28;20035;-74
2022/05/25 14:45:21;;;;;;;0.30;0.30;;;;;;;;;;5048707;28;20594;-74
2022/05/25 14:47:51;;;;;;;0.47;0.47;;;;;;;;;;5045711;28;20028;-74
2022/05/25 14:50:34;;;;;;;0.80;0.40;;;;;;;;;;5036805;28;20033;-76
2022/05/25 14:53:02;;;;;;;0.47;0.40;;;;;;;;;;5031872;28;20026;-76
2022/05/25 14:55:34;;;;;;;0.38;0.38;;;;;;;;;;5045742;28;20487;-76
2022/05/25 14:58:06;;;;;;;0.40;0.40;;;;;;;;;;5044211;28;20047;-75
2022/05/25 15:00:35;;;;;;;0.52;0.52;;;;;;;;;;5031190;28;20546;-75
2022/05/25 15:03:02;;;;;;;0.75;0.55;;;;;;;;;;5028608;28;20107;-75
2022/05/25 15:05:48;;;;;;;0.50;0.50;;;;;;;;;;5028590;28;20060;-75
2022/05/25 15:08:27;;;;;;;0.73;0.73;;;;;;;;;;5048172;28;20194;-76
2022/05/25 15:10:54;;;;;;;0.50;0.50;;;;;;;;;;5060552;28;20027;-76
2022/05/25 15:19:04;;;;;;;2.08;0.65;;;;;;;;;;5049079;28;20036;-75
2022/05/25 15:21:34;;;;;;;0.40;0.40;;;;;;;;;;5048786;28;20025;-75
2022/05/25 15:24:02;;;;;;;0.50;0.50;;;;;;;;;;5048738;28;20617;-75
2022/05/25 15:26:28;;;;;;;0.50;0.50;;;;;;;;;;5048700;28;20256;-75
2022/05/25 15:29:10;;;;;;;0.43;0.40;;;;;;;;;;5046781;28;20495;-75
2022/05/25 15:31:36;;;;;;;1.05;0.50;;;;;;;;;;5035725;28;20029;-75
2022/05/25 15:34:02;;;;;;;0.50;0.50;;;;;;;;;;5047860;28;20032;-76
2022/05/25 15:36:28;;;;;;;0.20;0.20;;;;;;;;;;5049000;28;20041;-75
2022/05/25 15:38:57;;;;;;;1.85;0.60;;;;;;;;;;5047383;28;20037;-75